Time;durP1;ratioP1;P1;durP2;ratioP2;P2;SDS_P1;SDS_P2;PMS_P1;PMS_P2;Temp;Humidity;BMP_temperature;BMP_pressure;BME280_temperature;BME280_humidity;BME280_pressure;Samples;Min_cycle;Max_cycle;Signal;HPM_P1;HPM_P2
2021/03/07 05:10:28;;;;;;;1.20;1.20;;;3.30;97.50;;;;;;6129658;22;20215;31
2021/03/07 05:12:55;;;;;;;1.37;1.37;;;3.40;98.30;;;;;;4933139;29;20248;-75
2021/03/07 05:15:21;;;;;;;1.30;1.30;;;3.50;99.20;;;;;;4935058;29;20210;-77
2021/03/07 05:17:48;;;;;;;1.20;1.20;;;3.30;99.90;;;;;;4935065;29;20284;-75
2021/03/07 05:20:16;;;;;;;1.30;1.30;;;3.40;99.90;;;;;;4934669;29;20201;-76
2021/03/07 05:22:42;;;;;;;1.10;1.10;;;3.30;98.60;;;;;;4934643;29;20606;-76
2021/03/07 05:25:10;;;;;;;1.40;1.40;;;3.50;98.70;;;;;;4934645;29;20654;-77
2021/03/07 05:27:39;;;;;;;1.50;1.50;;;3.30;98.60;;;;;;4934598;29;20202;-77
2021/03/07 05:30:07;;;;;;;1.20;1.20;;;3.30;98.60;;;;;;4934654;29;20217;-80
2021/03/07 05:32:34;;;;;;;1.37;1.37;;;3.20;98.80;;;;;;4934720;29;20782;-77
2021/03/07 05:35:01;;;;;;;1.30;1.30;;;3.50;99.10;;;;;;4934913;29;20629;-77
2021/03/07 05:37:28;;;;;;;1.13;1.13;;;3.20;99.00;;;;;;4934580;29;20210;-76
2021/03/07 05:39:55;;;;;;;1.20;1.20;;;3.20;99.00;;;;;;4934611;29;20260;-76
2021/03/07 05:42:22;;;;;;;1.30;1.30;;;3.30;99.40;;;;;;4934175;29;20237;-77
2021/03/07 05:44:50;;;;;;;1.37;1.37;;;3.60;99.20;;;;;;4934635;29;20275;-79
2021/03/07 05:47:17;;;;;;;1.37;1.37;;;3.10;99.30;;;;;;4935818;29;20202;-77
2021/03/07 05:49:45;;;;;;;1.43;1.43;;;3.30;97.70;;;;;;4936058;29;20206;-77
2021/03/07 05:52:12;;;;;;;1.27;1.27;;;3.20;97.40;;;;;;4939284;29;20226;-77
2021/03/07 05:54:40;;;;;;;1.30;1.30;;;3.10;97.40;;;;;;4944262;29;20202;-80
2021/03/07 05:57:08;;;;;;;1.30;1.30;;;;;;;;;;4945987;29;20206;-80
2021/03/07 05:59:35;;;;;;;1.43;1.43;;;3.20;97.10;;;;;;4944580;29;20265;-79
2021/03/07 06:02:03;;;;;;;1.37;1.37;;;3.10;97.30;;;;;;4946470;29;20230;-79
2021/03/07 06:04:30;;;;;;;1.23;1.23;;;3.10;97.30;;;;;;4942552;29;20717;-78
2021/03/07 06:06:57;;;;;;;1.20;1.20;;;3.30;97.20;;;;;;4941198;29;20206;-77
2021/03/07 06:09:27;;;;;;;1.27;1.27;;;3.30;97.20;;;;;;4943251;29;20213;-78
2021/03/07 06:11:55;;;;;;;1.53;1.53;;;3.30;97.40;;;;;;4940692;29;20234;-78
2021/03/07 06:14:25;;;;;;;1.37;1.37;;;3.40;97.00;;;;;;4940283;29;20210;-78
2021/03/07 06:17:07;;;;;;;1.33;1.33;;;3.40;97.00;;;;;;4939928;29;20209;-78
2021/03/07 06:19:58;;;;;;;1.40;1.40;;;3.50;97.10;;;;;;4939180;29;20265;-77
2021/03/07 06:22:27;;;;;;;1.40;1.40;;;3.50;96.70;;;;;;4937643;29;20230;-77
2021/03/07 06:24:54;;;;;;;1.30;1.30;;;3.70;96.50;;;;;;4937427;29;20222;-77
2021/03/07 06:27:22;;;;;;;1.47;1.47;;;3.50;96.80;;;;;;4937986;29;20229;-77
2021/03/07 06:29:57;;;;;;;1.40;1.40;;;3.40;96.70;;;;;;4937823;29;20578;-78
2021/03/07 06:32:31;;;;;;;1.40;1.40;;;3.50;96.70;;;;;;4937711;29;20626;-77
2021/03/07 06:34:58;;;;;;;1.20;1.20;;;3.40;96.70;;;;;;4937923;29;20253;-77
2021/03/07 06:37:26;;;;;;;1.27;1.27;;;3.40;96.70;;;;;;4938278;29;20210;-77
2021/03/07 06:39:53;;;;;;;1.40;1.40;;;3.50;97.10;;;;;;4938670;29;20202;-76
2021/03/07 06:42:21;;;;;;;1.30;1.30;;;3.60;96.90;;;;;;4939064;29;20222;-76
2021/03/07 06:44:59;;;;;;;1.30;1.30;;;3.50;96.50;;;;;;4939230;29;20649;-77
2021/03/07 06:47:28;;;;;;;1.43;1.43;;;3.60;96.50;;;;;;4937833;29;20213;-77
2021/03/07 06:50:15;;;;;;;1.40;1.40;;;3.70;96.40;;;;;;4937346;29;20214;-76
2021/03/07 06:52:50;;;;;;;1.20;1.20;;;3.70;96.20;;;;;;4939193;29;20213;-78
2021/03/07 06:55:18;;;;;;;1.30;1.30;;;3.80;96.20;;;;;;4940633;29;20663;-77
2021/03/07 06:57:46;;;;;;;1.30;1.30;;;3.80;96.00;;;;;;4940250;29;20747;-78
2021/03/07 07:00:14;;;;;;;1.23;1.23;;;3.90;99.90;;;;;;4940699;29;20210;-78
2021/03/07 07:03:06;;;;;;;1.37;1.37;;;3.90;95.80;;;;;;4939868;29;20210;-78
2021/03/07 07:05:38;;;;;;;1.20;1.20;;;3.90;95.50;;;;;;4941803;29;20289;-77
2021/03/07 07:08:06;;;;;;;1.33;1.33;;;3.90;95.50;;;;;;4940619;29;20209;-78
2021/03/07 07:10:56;;;;;;;1.30;1.30;;;3.90;95.70;;;;;;4939152;29;20244;-78
2021/03/07 07:13:23;;;;;;;1.27;1.27;;;4.00;95.50;;;;;;4938968;29;20202;-77
2021/03/07 07:16:02;;;;;;;1.20;1.20;;;4.10;95.60;;;;;;4938974;29;20198;-77
2021/03/07 07:18:33;;;;;;;1.10;1.10;;;4.30;95.30;;;;;;4938452;29;20202;-77
2021/03/07 07:21:03;;;;;;;1.30;1.30;;;4.20;95.00;;;;;;4938005;29;20281;-76
2021/03/07 07:23:30;;;;;;;1.10;1.10;;;4.30;95.00;;;;;;4937833;29;20210;-77
2021/03/07 07:25:57;;;;;;;1.30;1.30;;;4.40;94.90;;;;;;4938931;29;20225;-79
2021/03/07 07:28:26;;;;;;;1.30;1.30;;;4.40;94.80;;;;;;4938938;29;20241;-77
2021/03/07 07:30:55;;;;;;;1.33;1.33;;;4.50;94.90;;;;;;4939216;29;20222;-77
2021/03/07 07:33:36;;;;;;;1.27;1.27;;;4.60;94.60;;;;;;4937302;29;20249;-76
2021/03/07 07:36:06;;;;;;;1.10;1.10;;;4.60;94.50;;;;;;4936737;29;20237;-75
2021/03/07 07:38:34;;;;;;;1.40;1.40;;;4.60;94.60;;;;;;4936272;29;20630;-77
2021/03/07 07:41:02;;;;;;;1.10;1.10;;;4.50;94.60;;;;;;4934047;29;20708;-76
2021/03/07 07:43:50;;;;;;;1.27;1.27;;;4.60;94.60;;;;;;4935711;29;20209;-77
2021/03/07 07:46:17;;;;;;;1.30;1.30;;;4.70;94.30;;;;;;4936351;29;20222;-76
2021/03/07 07:48:46;;;;;;;1.30;1.30;;;4.80;94.00;;;;;;4936195;29;20214;-76
2021/03/07 07:51:36;;;;;;;1.30;1.30;;;4.90;94.00;;;;;;4936387;29;20226;-76
2021/03/07 07:54:06;;;;;;;1.20;1.20;;;5.00;93.50;;;;;;4936487;29;20261;-77
2021/03/07 07:56:34;;;;;;;1.20;1.20;;;5.20;93.50;;;;;;4935763;29;20202;-77
2021/03/07 07:59:01;;;;;;;1.27;1.27;;;5.30;93.50;;;;;;4936746;29;20743;-80
2021/03/07 08:01:43;;;;;;;1.20;1.20;;;;;;;;;;4937334;29;20639;-77
2021/03/07 08:04:34;;;;;;;1.13;1.13;;;5.60;97.60;;;;;;4928139;29;20228;-77
2021/03/07 08:07:03;;;;;;;1.20;1.20;;;5.40;92.60;;;;;;4935740;29;20679;-78
2021/03/07 08:09:38;;;;;;;1.00;1.00;;;5.40;92.80;;;;;;4936352;29;20210;-77
2021/03/07 08:12:38;;;;;;;1.10;1.10;;;5.60;92.80;;;;;;4935572;29;20237;-76
2021/03/07 08:15:40;;;;;;;1.20;1.20;;;5.50;92.60;;;;;;4932434;29;20261;-77
2021/03/07 08:18:07;;;;;;;1.40;1.40;;;5.60;92.50;;;;;;4932418;29;20733;-77
2021/03/07 08:21:06;;;;;;;1.20;1.20;;;5.50;92.60;;;;;;4935015;29;20277;-78
2021/03/07 08:24:09;;;;;;;1.20;1.20;;;5.50;92.20;;;;;;4931158;29;20221;-78
2021/03/07 08:26:53;;;;;;;1.23;1.23;;;5.40;92.30;;;;;;4936246;29;20595;-77
2021/03/07 08:29:41;;;;;;;1.40;1.40;;;5.40;92.20;;;;;;4935098;29;20268;-78
2021/03/07 08:32:28;;;;;;;1.30;1.30;;;5.20;92.50;;;;;;4935820;29;20222;-79
2021/03/07 08:34:57;;;;;;;1.23;1.23;;;5.20;92.50;;;;;;4936031;29;20643;-80
2021/03/07 08:37:25;;;;;;;1.20;1.20;;;5.20;92.60;;;;;;4936732;29;20257;-77
2021/03/07 08:40:28;;;;;;;1.20;1.20;;;5.40;92.70;;;;;;4936692;29;20634;-78
2021/03/07 08:42:56;;;;;;;1.20;1.20;;;5.60;92.20;;;;;;4936767;29;20202;-79
2021/03/07 08:45:24;;;;;;;1.30;1.30;;;5.50;92.50;;;;;;4930181;29;20257;-78
2021/03/07 08:47:52;;;;;;;1.10;1.10;;;5.50;92.30;;;;;;4919141;29;20250;-79
2021/03/07 08:50:20;;;;;;;1.33;1.33;;;5.50;99.90;;;;;;4932355;29;20293;-78
2021/03/07 08:52:49;;;;;;;1.30;1.30;;;5.40;93.00;;;;;;4937880;29;20265;-78
2021/03/07 08:55:16;;;;;;;1.20;1.20;;;5.60;93.40;;;;;;4937420;29;20230;-77
2021/03/07 08:57:47;;;;;;;1.30;1.30;;;5.70;92.10;;;;;;4936928;29;20266;-77
2021/03/07 09:00:16;;;;;;;1.20;1.20;;;5.90;91.80;;;;;;4936987;29;20277;-77
2021/03/07 09:02:44;;;;;;;1.10;1.10;;;5.80;91.90;;;;;;4936688;29;20565;-78
2021/03/07 09:05:27;;;;;;;1.20;1.20;;;5.60;92.00;;;;;;4930110;29;20245;-78
2021/03/07 09:07:59;;;;;;;1.30;1.30;;;5.70;92.00;;;;;;4936685;29;20210;-77
2021/03/07 09:10:34;;;;;;;1.10;1.10;;;5.60;92.40;;;;;;4934707;29;20202;-79
2021/03/07 09:13:11;;;;;;;1.33;1.33;;;5.60;92.00;;;;;;4926978;29;20210;-78
2021/03/07 09:15:40;;;;;;;1.20;1.20;;;5.40;92.10;;;;;;4926743;29;20202;-77
2021/03/07 09:18:08;;;;;;;1.10;1.10;;;5.50;92.50;;;;;;4928604;29;20210;-78
2021/03/07 09:20:46;;;;;;;1.10;1.10;;;5.50;92.80;;;;;;4930855;29;20324;-78
2021/03/07 09:23:35;;;;;;;1.40;1.40;;;5.50;92.80;;;;;;4930605;29;20218;-80
2021/03/07 09:26:07;;;;;;;1.10;1.10;;;5.70;92.60;;;;;;4930917;29;20336;-77
2021/03/07 09:28:37;;;;;;;1.00;1.00;;;5.70;93.80;;;;;;4935005;29;20880;-77
2021/03/07 09:31:08;;;;;;;1.00;1.00;;;5.50;99.90;;;;;;4934946;29;20229;-77
2021/03/07 09:33:35;;;;;;;1.27;1.27;;;5.40;92.60;;;;;;4931348;29;20639;-78
2021/03/07 09:36:08;;;;;;;1.10;1.10;;;5.40;92.60;;;;;;4931219;29;20205;-78
2021/03/07 09:38:48;;;;;;;1.30;1.30;;;5.50;92.50;;;;;;4929486;29;20808;-77
2021/03/07 09:41:18;;;;;;;1.10;1.10;;;5.30;92.40;;;;;;4930934;29;20233;-78
2021/03/07 09:43:48;;;;;;;1.20;1.20;;;5.30;92.50;;;;;;4932084;29;20683;-78
2021/03/07 09:46:16;;;;;;;1.30;1.30;;;5.10;92.90;;;;;;4932169;29;20225;-78
2021/03/07 09:48:45;;;;;;;1.23;1.23;;;5.20;92.80;;;;;;4934445;29;20210;-78
2021/03/07 09:51:14;;;;;;;1.00;1.00;;;5.30;93.00;;;;;;4933100;29;20229;-78
2021/03/07 09:53:43;;;;;;;1.20;1.20;;;5.60;92.70;;;;;;4928924;29;20217;-78
2021/03/07 09:56:24;;;;;;;1.30;1.30;;;5.60;92.80;;;;;;4928265;29;20206;-78
2021/03/07 09:58:51;;;;;;;1.10;1.10;;;5.80;92.40;;;;;;4930129;29;20250;-78
2021/03/07 10:01:19;;;;;;;1.20;1.20;;;5.70;96.10;;;;;;4932284;29;20288;-78
2021/03/07 10:03:46;;;;;;;1.20;1.20;;;5.70;95.10;;;;;;4930952;29;20210;-78
2021/03/07 10:06:17;;;;;;;1.00;1.00;;;;;;;;;;4930650;29;20241;-82
2021/03/07 10:08:47;;;;;;;1.13;1.13;;;5.80;91.90;;;;;;4931834;29;20206;-78
2021/03/07 10:11:20;;;;;;;1.00;1.00;;;5.90;92.70;;;;;;4937029;29;20241;-78
2021/03/07 10:13:58;;;;;;;1.20;1.20;;;6.20;94.50;;;;;;4937382;29;20264;-81
2021/03/07 10:16:27;;;;;;;1.27;1.27;;;5.80;91.90;;;;;;4938064;29;20214;-78
2021/03/07 10:19:19;;;;;;;1.00;1.00;;;5.90;92.20;;;;;;4937430;29;20665;-78
2021/03/07 10:21:47;;;;;;;1.10;1.10;;;6.00;92.40;;;;;;4926216;29;20226;-76
2021/03/07 10:24:16;;;;;;;1.20;1.20;;;6.00;92.70;;;;;;4934178;29;20254;-78
2021/03/07 10:26:48;;;;;;;0.90;0.90;;;5.80;93.20;;;;;;4934429;29;20289;-75
2021/03/07 10:29:26;;;;;;;1.07;1.07;;;5.80;93.10;;;;;;4934169;29;20202;-76
2021/03/07 10:32:12;;;;;;;1.27;1.27;;;6.10;93.40;;;;;;4934287;29;20225;-75
2021/03/07 10:34:42;;;;;;;1.40;1.40;;;5.90;93.30;;;;;;4933942;29;20224;-75
2021/03/07 10:37:10;;;;;;;1.10;1.10;;;6.10;93.70;;;;;;4936327;29;20226;-77
2021/03/07 10:39:38;;;;;;;1.10;1.10;;;6.20;92.70;;;;;;4937207;29;20202;-75
2021/03/07 10:42:07;;;;;;;1.30;1.30;;;5.90;93.50;;;;;;4937580;29;20730;-75
2021/03/07 10:44:34;;;;;;;1.00;1.00;;;6.00;94.20;;;;;;4938406;29;20547;-75
2021/03/07 10:47:15;;;;;;;1.40;1.40;;;6.20;93.70;;;;;;4938046;29;20237;-77
2021/03/07 10:49:45;;;;;;;1.10;1.10;;;6.30;93.10;;;;;;4938855;29;20206;-77
2021/03/07 10:52:13;;;;;;;1.20;1.20;;;6.50;95.90;;;;;;4937655;29;20240;-76
2021/03/07 10:54:41;;;;;;;1.23;1.23;;;6.40;96.60;;;;;;4937477;29;20206;-77
2021/03/07 10:57:09;;;;;;;1.23;1.23;;;6.20;97.00;;;;;;4937419;29;20198;-76
2021/03/07 10:59:37;;;;;;;1.00;1.00;;;6.30;97.00;;;;;;4937063;29;20214;-75
2021/03/07 11:02:08;;;;;;;1.17;1.17;;;6.00;98.10;;;;;;4937314;29;20569;-76
2021/03/07 11:04:35;;;;;;;1.10;1.10;;;6.20;99.90;;;;;;4937377;29;20206;-75
2021/03/07 11:07:03;;;;;;;1.20;1.20;;;6.20;99.90;;;;;;4937361;29;20253;-75
2021/03/07 11:09:30;;;;;;;1.10;1.10;;;6.60;97.70;;;;;;4937349;29;20210;-74
2021/03/07 11:11:58;;;;;;;1.20;1.20;;;6.70;98.70;;;;;;4936971;29;20238;-75
2021/03/07 11:14:25;;;;;;;1.20;1.20;;;6.20;99.40;;;;;;4937190;29;20210;-76
2021/03/07 11:16:52;;;;;;;1.13;1.13;;;;;;;;;;4937030;29;20675;-76
2021/03/07 11:19:20;;;;;;;1.20;1.20;;;6.70;98.40;;;;;;4936993;29;20202;-77
2021/03/07 11:21:46;;;;;;;1.00;1.00;;;6.50;94.90;;;;;;4936793;29;20237;-75
2021/03/07 11:24:13;;;;;;;1.20;1.20;;;6.60;94.60;;;;;;4939234;29;20206;-78
2021/03/07 11:26:40;;;;;;;1.23;1.23;;;6.50;94.40;;;;;;4937619;29;20222;-78
2021/03/07 11:29:09;;;;;;;1.17;1.17;;;6.60;94.40;;;;;;4946582;29;20206;-78
2021/03/07 11:31:36;;;;;;;1.10;1.10;;;6.70;92.90;;;;;;4957383;29;20230;-77
2021/03/07 11:34:05;;;;;;;1.00;1.00;;;6.70;92.90;;;;;;4954401;29;20233;-77
2021/03/07 11:36:32;;;;;;;1.20;1.20;;;6.90;93.10;;;;;;4954109;29;20202;-76
2021/03/07 11:38:59;;;;;;;1.20;1.20;;;6.80;93.90;;;;;;4953295;29;20242;-77
2021/03/07 11:41:25;;;;;;;0.97;0.97;;;6.90;95.30;;;;;;4954525;29;20233;-77
2021/03/07 11:43:52;;;;;;;1.20;1.20;;;6.80;99.90;;;;;;4952000;29;20206;-76
2021/03/07 11:46:20;;;;;;;1.00;1.00;;;6.90;99.90;;;;;;4955572;29;20289;-77
2021/03/07 11:48:47;;;;;;;1.23;1.23;;;6.80;99.90;;;;;;4957985;29;20218;-77
2021/03/07 11:51:14;;;;;;;1.00;1.00;;;6.80;99.90;;;;;;4941763;29;20262;-79
2021/03/07 11:53:41;;;;;;;1.03;1.03;;;6.90;99.90;;;;;;4938794;29;20210;-78
2021/03/07 11:56:08;;;;;;;1.00;1.00;;;6.80;99.90;;;;;;4938009;29;20202;-77
2021/03/07 11:58:35;;;;;;;1.10;1.10;;;6.90;99.90;;;;;;4937877;29;20606;-78
2021/03/07 12:01:03;;;;;;;1.00;1.00;;;6.80;99.90;;;;;;4937779;29;20750;-77
2021/03/07 12:03:30;;;;;;;1.17;1.17;;;7.00;99.90;;;;;;4937726;29;20298;-78
2021/03/07 12:05:57;;;;;;;1.20;1.20;;;6.90;99.90;;;;;;4940098;29;20222;-78
2021/03/07 12:08:24;;;;;;;1.00;1.00;;;6.90;99.90;;;;;;4939341;29;20209;-78
2021/03/07 12:10:52;;;;;;;1.00;1.00;;;6.80;99.00;;;;;;4938453;29;20609;-78
2021/03/07 12:13:19;;;;;;;1.20;1.20;;;6.50;99.90;;;;;;4937671;29;20209;-77
2021/03/07 12:15:46;;;;;;;1.10;1.10;;;6.50;99.90;;;;;;4936465;29;20265;-77
2021/03/07 12:18:13;;;;;;;1.10;1.10;;;6.50;99.90;;;;;;4937400;29;20217;-76
2021/03/07 12:20:41;;;;;;;1.00;1.00;;;6.60;99.90;;;;;;4938572;29;20226;-79
2021/03/07 12:23:08;;;;;;;1.03;1.03;;;6.70;99.90;;;;;;4937744;29;20610;-78
2021/03/07 12:25:35;;;;;;;1.00;1.00;;;6.80;99.90;;;;;;4938972;29;20260;-78
2021/03/07 12:28:03;;;;;;;1.13;1.13;;;6.90;99.90;;;;;;4939514;29;20300;-78
2021/03/07 12:30:30;;;;;;;1.20;1.20;;;7.20;99.90;;;;;;4939581;29;20206;-78
2021/03/07 12:32:57;;;;;;;1.03;1.03;;;7.20;99.90;;;;;;4940061;29;20214;-78
2021/03/07 12:35:24;;;;;;;1.10;1.10;;;6.90;99.90;;;;;;4939176;29;20210;-78
2021/03/07 12:37:52;;;;;;;1.00;1.00;;;7.10;99.90;;;;;;4939173;29;20225;-77
2021/03/07 12:40:19;;;;;;;1.20;1.20;;;7.00;99.90;;;;;;4941628;29;20730;-77
2021/03/07 12:42:46;;;;;;;1.10;1.10;;;6.70;99.90;;;;;;4942369;29;20214;-78
2021/03/07 12:45:13;;;;;;;1.10;1.10;;;6.70;99.90;;;;;;4940324;29;20599;-79
2021/03/07 12:47:40;;;;;;;1.10;1.10;;;6.80;99.90;;;;;;4936411;29;20210;-78
2021/03/07 12:50:23;;;;;;;1.07;1.07;;;6.70;99.90;;;;;;4936817;29;20217;-78
2021/03/07 12:52:50;;;;;;;1.20;1.20;;;6.60;99.90;;;;;;4935708;29;20210;-78
2021/03/07 12:55:18;;;;;;;0.90;0.90;;;6.70;99.90;;;;;;4936706;29;20206;-77
2021/03/07 12:57:45;;;;;;;1.20;1.20;;;6.50;99.90;;;;;;4938271;29;20714;-79
2021/03/07 13:00:13;;;;;;;1.10;1.10;;;6.50;99.90;;;;;;4938974;29;20209;-79
2021/03/07 13:02:40;;;;;;;1.20;1.20;;;6.60;99.90;;;;;;4939463;29;20742;-78
2021/03/07 13:05:08;;;;;;;1.00;1.00;;;6.60;99.90;;;;;;4940923;29;20205;-77
2021/03/07 13:07:35;;;;;;;1.10;1.10;;;7.00;99.90;;;;;;4935859;29;20226;-77
2021/03/07 13:10:03;;;;;;;1.10;1.10;;;7.10;99.90;;;;;;4935008;28;20206;-78
2021/03/07 13:12:31;;;;;;;0.90;0.90;;;7.20;99.60;;;;;;4935347;29;20237;-78
2021/03/07 13:14:59;;;;;;;1.23;1.23;;;7.30;97.80;;;;;;4929284;29;20206;-76
2021/03/07 13:17:26;;;;;;;1.00;1.00;;;6.90;98.30;;;;;;4938275;29;20213;-79
2021/03/07 13:19:53;;;;;;;1.07;1.07;;;7.20;95.00;;;;;;4939948;29;20210;-77
2021/03/07 13:22:20;;;;;;;1.10;1.10;;;7.20;94.90;;;;;;4937224;29;20217;-76
2021/03/07 13:24:47;;;;;;;1.20;1.20;;;7.10;94.80;;;;;;4934587;29;20206;-76
2021/03/07 13:27:14;;;;;;;1.10;1.10;;;7.10;94.30;;;;;;4933777;29;20234;-77
2021/03/07 13:29:41;;;;;;;1.10;1.10;;;7.20;94.00;;;;;;4934004;29;20742;-76
2021/03/07 13:32:08;;;;;;;1.20;1.20;;;6.90;94.10;;;;;;4931855;29;20630;-76
2021/03/07 13:34:35;;;;;;;1.20;1.20;;;6.80;94.10;;;;;;4932421;29;20269;-76
2021/03/07 13:37:03;;;;;;;1.10;1.10;;;6.80;94.50;;;;;;4932783;29;20285;-76
2021/03/07 13:39:29;;;;;;;1.10;1.10;;;6.80;94.60;;;;;;4933024;29;20261;-76
2021/03/07 13:41:57;;;;;;;1.10;1.10;;;6.60;94.20;;;;;;4932604;29;20281;-76
2021/03/07 13:44:24;;;;;;;1.10;1.10;;;6.40;93.70;;;;;;4932510;29;20253;-76
2021/03/07 13:46:52;;;;;;;1.10;1.10;;;6.30;94.60;;;;;;4934212;29;20308;-76
2021/03/07 13:49:19;;;;;;;1.10;1.10;;;6.30;94.20;;;;;;4934546;29;20208;-76
2021/03/07 13:51:46;;;;;;;1.37;1.37;;;6.50;94.80;;;;;;4934444;29;20782;-76
2021/03/07 13:54:13;;;;;;;1.20;1.20;;;6.50;94.50;;;;;;4934538;29;20215;-76
2021/03/07 13:56:41;;;;;;;1.20;1.20;;;6.60;94.80;;;;;;4934407;29;20202;-76
2021/03/07 13:59:08;;;;;;;1.20;1.20;;;6.70;95.40;;;;;;4934445;29;20209;-77
2021/03/07 14:01:35;;;;;;;1.00;1.00;;;6.80;95.60;;;;;;4934316;29;20593;-76
2021/03/07 14:04:03;;;;;;;1.00;1.00;;;6.90;95.20;;;;;;4934541;29;20202;-76
2021/03/07 14:06:30;;;;;;;1.20;1.20;;;7.10;95.20;;;;;;4934444;29;20273;-76
2021/03/07 14:08:57;;;;;;;1.10;1.10;;;6.70;95.30;;;;;;4934180;29;20664;-76
2021/03/07 14:11:24;;;;;;;1.00;1.00;;;6.90;95.90;;;;;;4935485;29;20237;-76
2021/03/07 14:13:51;;;;;;;1.30;1.30;;;7.00;96.90;;;;;;4938327;29;20206;-76
2021/03/07 14:16:17;;;;;;;1.10;1.10;;;7.00;97.00;;;;;;4937961;29;20261;-76
2021/03/07 14:18:46;;;;;;;1.03;1.03;;;6.90;96.80;;;;;;4937789;29;20206;-76
2021/03/07 14:21:29;;;;;;;1.17;1.17;;;7.00;96.20;;;;;;4937875;29;20232;-77
2021/03/07 14:23:56;;;;;;;1.10;1.10;;;6.90;96.90;;;;;;4937799;29;20491;-77
2021/03/07 14:26:23;;;;;;;1.00;1.00;;;7.10;96.50;;;;;;4937775;29;20715;-77
2021/03/07 14:28:49;;;;;;;1.10;1.10;;;7.00;95.30;;;;;;4937888;29;20209;-77
2021/03/07 14:31:16;;;;;;;1.07;1.07;;;7.00;95.80;;;;;;4937700;29;20288;-77
2021/03/07 14:33:43;;;;;;;1.00;1.00;;;6.90;97.20;;;;;;4938938;29;20734;-77
2021/03/07 14:36:11;;;;;;;1.10;1.10;;;6.90;97.30;;;;;;4937510;29;20202;-77
2021/03/07 14:38:38;;;;;;;1.23;1.23;;;7.00;96.60;;;;;;4937325;29;20210;-77
2021/03/07 14:41:06;;;;;;;1.20;1.20;;;7.00;97.50;;;;;;4937570;29;20253;-77
2021/03/07 14:43:32;;;;;;;1.10;1.10;;;7.00;97.60;;;;;;4937243;29;20253;-77
2021/03/07 14:45:59;;;;;;;1.10;1.10;;;7.00;97.70;;;;;;4937318;29;20229;-77
2021/03/07 14:48:26;;;;;;;1.10;1.10;;;7.10;97.50;;;;;;4937461;29;20206;-77
2021/03/07 14:50:53;;;;;;;1.20;1.20;;;7.30;97.40;;;;;;4936539;29;20233;-81
2021/03/07 14:53:23;;;;;;;0.90;0.90;;;7.20;98.20;;;;;;4935548;29;20214;-76
2021/03/07 14:55:51;;;;;;;1.07;1.07;;;7.50;96.70;;;;;;4935544;29;20206;-78
2021/03/07 14:58:19;;;;;;;1.10;1.10;;;7.20;96.60;;;;;;4934029;29;20213;-78
2021/03/07 15:00:46;;;;;;;1.20;1.20;;;7.10;97.70;;;;;;4942470;29;20230;-77
2021/03/07 15:03:13;;;;;;;1.20;1.20;;;7.20;97.20;;;;;;4939874;29;20240;-77
2021/03/07 15:05:40;;;;;;;1.10;1.10;;;7.10;97.30;;;;;;4938494;28;20668;-77
2021/03/07 15:08:07;;;;;;;1.10;1.10;;;7.10;97.50;;;;;;4937953;29;20205;-78
2021/03/07 15:10:34;;;;;;;0.80;0.80;;;7.10;97.20;;;;;;4943816;29;20290;-78
2021/03/07 15:13:01;;;;;;;1.10;1.10;;;7.20;97.00;;;;;;4940811;29;20194;-77
2021/03/07 15:15:28;;;;;;;1.20;1.20;;;7.30;97.00;;;;;;4939306;29;20237;-76
2021/03/07 15:17:55;;;;;;;1.10;1.10;;;7.20;96.60;;;;;;4937079;29;20206;-78
2021/03/07 15:20:25;;;;;;;1.10;1.10;;;7.20;96.70;;;;;;4938185;29;20269;-78
2021/03/07 15:22:52;;;;;;;1.13;1.13;;;7.30;97.40;;;;;;4939753;29;20263;-78
2021/03/07 15:25:19;;;;;;;1.07;1.07;;;7.20;97.20;;;;;;4931895;29;20207;-78
2021/03/07 15:27:46;;;;;;;1.00;1.00;;;7.30;97.50;;;;;;4937876;29;20234;-78
2021/03/07 15:30:15;;;;;;;1.00;1.00;;;7.20;94.50;;;;;;4938853;29;20210;-78
2021/03/07 15:32:42;;;;;;;1.00;1.00;;;7.10;94.70;;;;;;4938336;29;20221;-78
2021/03/07 15:35:10;;;;;;;1.00;1.00;;;7.30;95.50;;;;;;4939645;29;20257;-79
2021/03/07 15:37:37;;;;;;;1.10;1.10;;;7.40;95.00;;;;;;4938332;29;20214;-78
2021/03/07 15:40:05;;;;;;;0.90;0.90;;;7.20;95.90;;;;;;4939418;29;20217;-77
2021/03/07 15:42:33;;;;;;;1.10;1.10;;;7.10;96.00;;;;;;4939679;29;20316;-78
2021/03/07 15:45:00;;;;;;;1.40;1.40;;;6.80;96.20;;;;;;4936355;29;20210;-77
2021/03/07 15:47:28;;;;;;;1.07;1.07;;;7.00;96.70;;;;;;4936898;29;20233;-76
2021/03/07 15:49:55;;;;;;;1.10;1.10;;;6.70;97.30;;;;;;4929837;29;20206;-78
2021/03/07 15:52:41;;;;;;;1.10;1.10;;;6.60;96.80;;;;;;4936532;29;20205;-78
2021/03/07 15:55:08;;;;;;;1.10;1.10;;;6.70;97.30;;;;;;4939112;29;20743;-78
2021/03/07 15:57:35;;;;;;;1.07;1.07;;;6.70;96.70;;;;;;4936957;29;20248;-78
2021/03/07 16:00:04;;;;;;;1.23;1.23;;;6.70;97.20;;;;;;4937637;29;20283;-79
2021/03/07 16:02:32;;;;;;;1.20;1.20;;;6.70;96.90;;;;;;4938186;29;20655;-77
2021/03/07 16:04:59;;;;;;;1.23;1.23;;;6.50;97.50;;;;;;4937765;29;20662;-78
2021/03/07 16:07:26;;;;;;;1.10;1.10;;;6.40;97.80;;;;;;4936891;29;20250;-77
2021/03/07 16:09:53;;;;;;;1.17;1.17;;;6.30;97.60;;;;;;4936886;29;20257;-78
2021/03/07 16:12:20;;;;;;;1.20;1.20;;;6.00;97.40;;;;;;4937341;29;20719;-80
2021/03/07 16:14:47;;;;;;;1.10;1.10;;;6.10;98.60;;;;;;4937021;29;20265;-78
2021/03/07 16:17:13;;;;;;;1.07;1.07;;;5.60;97.40;;;;;;4936026;29;20391;-78
2021/03/07 16:19:41;;;;;;;1.23;1.23;;;5.50;99.90;;;;;;4936244;29;20661;-77
2021/03/07 16:22:08;;;;;;;1.10;1.10;;;5.50;99.90;;;;;;4935592;29;20773;-77
2021/03/07 16:24:35;;;;;;;1.20;1.20;;;5.40;99.90;;;;;;4935669;29;20206;-78
2021/03/07 16:27:03;;;;;;;1.40;1.40;;;5.40;99.90;;;;;;4935503;29;20230;-77
2021/03/07 16:29:30;;;;;;;1.23;1.23;;;5.40;99.90;;;;;;4935860;29;20205;-76
2021/03/07 16:31:56;;;;;;;1.13;1.13;;;5.30;99.90;;;;;;4935596;29;20233;-76
2021/03/07 16:34:24;;;;;;;1.20;1.20;;;5.30;99.90;;;;;;4934810;29;20241;-76
2021/03/07 16:36:51;;;;;;;1.33;1.33;;;5.60;99.90;;;;;;4921901;29;20201;-76
2021/03/07 16:39:18;;;;;;;1.10;1.10;;;5.30;99.90;;;;;;4916568;29;20206;-76
2021/03/07 16:41:45;;;;;;;1.40;1.40;;;5.30;99.90;;;;;;4916977;29;20238;-77
2021/03/07 16:44:12;;;;;;;1.20;1.20;;;5.10;99.90;;;;;;4917251;29;20211;-77
2021/03/07 16:46:39;;;;;;;1.27;1.27;;;5.00;99.90;;;;;;4926585;29;20258;-79
2021/03/07 16:49:06;;;;;;;1.23;1.23;;;4.90;99.90;;;;;;4928035;29;20210;-78
2021/03/07 16:51:34;;;;;;;1.40;1.40;;;4.90;96.60;;;;;;4922642;29;20234;-74
2021/03/07 16:54:04;;;;;;;1.50;1.50;;;4.80;95.60;;;;;;4916013;29;20215;-75
2021/03/07 16:56:31;;;;;;;1.30;1.30;;;4.70;93.20;;;;;;4916269;29;20199;-76
2021/03/07 16:58:58;;;;;;;1.20;1.20;;;4.80;93.10;;;;;;4915873;29;20706;-75
2021/03/07 17:01:25;;;;;;;1.30;1.30;;;4.80;92.60;;;;;;4915284;29;20297;-76
2021/03/07 17:03:52;;;;;;;1.10;1.10;;;4.70;92.80;;;;;;4916304;29;20211;-75
2021/03/07 17:06:19;;;;;;;1.20;1.20;;;4.60;93.00;;;;;;4915992;29;20282;-75
2021/03/07 17:08:46;;;;;;;1.20;1.20;;;4.60;92.80;;;;;;4916806;29;20211;-78
2021/03/07 17:11:14;;;;;;;1.30;1.30;;;4.60;94.10;;;;;;4916987;29;20286;-77
2021/03/07 17:13:41;;;;;;;1.27;1.27;;;4.60;94.10;;;;;;4920089;29;20209;-78
2021/03/07 17:16:07;;;;;;;1.00;1.00;;;4.90;93.00;;;;;;4934335;29;20260;-75
2021/03/07 17:18:35;;;;;;;1.20;1.20;;;4.70;92.40;;;;;;4937523;29;20206;-78
2021/03/07 17:21:02;;;;;;;1.30;1.30;;;4.60;92.40;;;;;;4940206;29;20226;-79
2021/03/07 17:23:36;;;;;;;1.17;1.17;;;4.60;92.40;;;;;;4940172;29;20206;-79
2021/03/07 17:26:03;;;;;;;1.00;1.00;;;4.60;92.80;;;;;;4933134;29;20670;-76
2021/03/07 17:28:31;;;;;;;1.10;1.10;;;4.70;92.60;;;;;;4924882;29;20254;-79
2021/03/07 17:30:59;;;;;;;1.13;1.13;;;4.70;92.60;;;;;;4916619;29;20285;-75
2021/03/07 17:33:26;;;;;;;1.23;1.23;;;4.70;92.80;;;;;;4928698;29;20205;-75
2021/03/07 17:35:53;;;;;;;1.17;1.17;;;4.60;92.70;;;;;;4930735;29;20212;-75
2021/03/07 17:38:20;;;;;;;1.20;1.20;;;4.60;92.80;;;;;;4925367;29;20622;-75
2021/03/07 17:40:47;;;;;;;1.33;1.33;;;4.40;93.10;;;;;;4930448;29;20218;-76
2021/03/07 17:43:14;;;;;;;1.10;1.10;;;4.40;96.40;;;;;;4923579;29;20206;-77
2021/03/07 17:45:42;;;;;;;1.27;1.27;;;4.30;95.30;;;;;;4925765;29;20253;-75
2021/03/07 17:48:10;;;;;;;1.10;1.10;;;4.30;93.20;;;;;;4924789;29;21002;-77
2021/03/07 17:50:38;;;;;;;1.10;1.10;;;4.30;93.00;;;;;;4998020;23;20234;-76
2021/03/07 17:53:05;;;;;;;1.20;1.20;;;4.40;93.10;;;;;;5007167;28;20246;-76
2021/03/07 17:55:32;;;;;;;1.20;1.20;;;4.40;93.60;;;;;;5005888;28;20199;-74
2021/03/07 17:57:58;;;;;;;1.27;1.27;;;4.50;93.30;;;;;;5004626;28;20195;-76
2021/03/07 18:00:26;;;;;;;1.30;1.30;;;4.40;93.10;;;;;;4991627;28;20644;-75
2021/03/07 18:02:54;;;;;;;1.20;1.20;;;4.60;93.30;;;;;;4987893;28;20200;-75
2021/03/07 18:05:39;;;;;;;1.10;1.10;;;4.50;92.80;;;;;;4990670;28;20572;-76
2021/03/07 18:08:06;;;;;;;1.33;1.33;;;4.50;93.10;;;;;;4986038;28;20244;-74
2021/03/07 18:10:33;;;;;;;1.30;1.30;;;4.60;92.80;;;;;;4985778;28;20220;-75
2021/03/07 18:13:00;;;;;;;1.40;1.40;;;4.50;92.80;;;;;;4986575;28;20211;-75
2021/03/07 18:15:27;;;;;;;1.10;1.10;;;4.70;93.10;;;;;;4985318;28;20657;-76
2021/03/07 18:17:56;;;;;;;1.30;1.30;;;4.80;92.80;;;;;;4985763;28;20201;-76
2021/03/07 18:20:23;;;;;;;1.30;1.30;;;4.70;93.10;;;;;;4980758;28;20697;-75